createdAt,value
2018-02-09T00:01:10.656Z,979.89
2018-02-09T00:02:10.521Z,979.91
2018-02-09T00:04:14.304Z,979.90
2018-02-09T00:05:14.213Z,979.90
2018-02-09T00:07:18.048Z,979.86
2018-02-09T00:08:17.913Z,979.87
2018-02-09T00:10:21.762Z,979.88
2018-02-09T00:11:21.626Z,979.91
2018-02-09T00:13:25.412Z,979.90
2018-02-09T00:14:25.318Z,979.90
2018-02-09T00:16:29.153Z,979.90
2018-02-09T00:17:29.014Z,979.89
2018-02-09T00:19:32.800Z,979.84
2018-02-09T00:20:32.713Z,979.84
2018-02-09T00:22:36.544Z,979.83
2018-02-09T00:23:36.409Z,979.84
2018-02-09T00:25:40.377Z,979.84
2018-02-09T00:26:40.243Z,979.83
2018-02-09T00:28:32.974Z,979.86
2018-02-09T00:29:32.883Z,979.89
2018-02-09T00:31:36.718Z,979.90
2018-02-09T00:32:36.592Z,979.88
2018-02-09T00:34:40.372Z,979.86
2018-02-09T00:35:40.279Z,979.87
2018-02-09T00:37:44.113Z,979.88
2018-02-09T00:38:43.978Z,979.87
2018-02-09T00:40:47.813Z,979.90
2018-02-09T00:41:47.680Z,979.89
2018-02-09T00:43:51.474Z,979.85
2018-02-09T00:44:51.383Z,979.89
2018-02-09T00:46:55.221Z,979.88
2018-02-09T00:47:55.083Z,979.87
2018-02-09T00:49:58.866Z,979.86
2018-02-09T00:50:58.777Z,979.90
2018-02-09T00:53:02.621Z,979.90
2018-02-09T00:54:02.497Z,979.88
2018-02-09T00:56:06.329Z,979.85
2018-02-09T00:57:06.192Z,979.83
2018-02-09T00:58:58.919Z,979.82
2018-02-09T00:59:58.829Z,979.82
2018-02-09T01:02:02.661Z,979.80
2018-02-09T01:03:02.525Z,979.79
2018-02-09T01:05:06.316Z,979.75
2018-02-09T01:06:06.226Z,979.74
2018-02-09T01:08:10.065Z,979.77
2018-02-09T01:09:09.931Z,979.72
2018-02-09T01:11:13.857Z,979.76
2018-02-09T01:12:13.722Z,979.70
2018-02-09T01:14:17.515Z,979.73
2018-02-09T01:15:17.427Z,979.72
2018-02-09T01:17:21.257Z,979.70
2018-02-09T01:18:21.124Z,979.67
2018-02-09T01:20:24.976Z,979.62
2018-02-09T01:21:24.835Z,979.60
2018-02-09T01:23:28.623Z,979.61
2018-02-09T01:24:28.533Z,979.61
2018-02-09T01:25:28.446Z,979.60
2018-02-09T01:26:28.359Z,979.61
2018-02-09T01:27:28.274Z,979.63
2018-02-09T01:28:28.190Z,979.60
2018-02-09T01:29:28.100Z,979.64
2018-02-09T01:30:28.014Z,979.68
2018-02-09T01:31:27.928Z,979.66
2018-02-09T01:32:27.842Z,979.67
2018-02-09T01:33:27.760Z,979.71
2018-02-09T01:34:27.667Z,979.63
2018-02-09T01:35:27.583Z,979.64
2018-02-09T01:36:27.498Z,979.64
2018-02-09T01:37:27.410Z,979.61
2018-02-09T01:38:27.324Z,979.61
2018-02-09T01:39:27.240Z,979.63
2018-02-09T01:40:27.151Z,979.63
2018-02-09T01:41:27.066Z,979.62
2018-02-09T01:42:26.979Z,979.63
2018-02-09T01:43:26.890Z,979.63
2018-02-09T01:44:26.809Z,979.59
2018-02-09T01:45:26.718Z,979.64
2018-02-09T01:46:26.634Z,979.62
2018-02-09T01:47:26.546Z,979.63
2018-02-09T01:48:26.460Z,979.59
2018-02-09T01:49:26.371Z,979.58
2018-02-09T01:50:26.290Z,979.58
2018-02-09T01:51:26.202Z,979.60
2018-02-09T01:52:26.114Z,979.57
2018-02-09T01:53:26.029Z,979.58
2018-02-09T01:54:25.941Z,979.60
2018-02-09T01:55:25.857Z,979.60
2018-02-09T01:56:25.767Z,979.60
2018-02-09T01:57:25.682Z,979.58
2018-02-09T01:58:25.593Z,979.58
2018-02-09T01:59:25.507Z,979.54
2018-02-09T02:00:25.419Z,979.55
2018-02-09T02:01:25.335Z,979.53
2018-02-09T02:02:25.254Z,979.56
2018-02-09T02:03:25.164Z,979.55
2018-02-09T02:04:25.073Z,979.54
2018-02-09T02:05:24.988Z,979.54
2018-02-09T02:06:24.902Z,979.55
2018-02-09T02:07:24.813Z,979.52
2018-02-09T02:08:24.729Z,979.50
2018-02-09T02:09:24.644Z,979.48
2018-02-09T02:10:24.556Z,979.48
2018-02-09T02:11:24.475Z,979.49
2018-02-09T02:12:24.382Z,979.47
2018-02-09T02:13:24.294Z,979.43
2018-02-09T02:14:24.210Z,979.43
2018-02-09T02:15:24.122Z,979.43
2018-02-09T02:16:24.033Z,979.41
2018-02-09T02:17:23.947Z,979.45
2018-02-09T02:18:23.862Z,979.42
2018-02-09T02:19:23.775Z,979.46
2018-02-09T02:20:23.687Z,979.48
2018-02-09T02:21:23.602Z,979.44
2018-02-09T02:22:23.517Z,979.43
2018-02-09T02:23:23.430Z,979.39
2018-02-09T02:24:23.342Z,979.42
2018-02-09T02:25:23.257Z,979.41
2018-02-09T02:26:23.168Z,979.41
2018-02-09T02:27:23.083Z,979.38
2018-02-09T02:28:22.995Z,979.39
2018-02-09T02:29:22.908Z,979.36
2018-02-09T02:30:22.823Z,979.39
2018-02-09T02:31:22.734Z,979.39
2018-02-09T02:32:22.647Z,979.37
2018-02-09T02:33:22.564Z,979.38
2018-02-09T02:34:22.474Z,979.38
2018-02-09T02:35:22.386Z,979.37
2018-02-09T02:36:22.310Z,979.35
2018-02-09T02:37:22.215Z,979.33
2018-02-09T02:38:22.128Z,979.31
2018-02-09T02:39:22.040Z,979.36
2018-02-09T02:40:21.956Z,979.35
2018-02-09T02:41:21.868Z,979.36
2018-02-09T02:42:21.780Z,979.28
2018-02-09T02:43:21.692Z,979.34
2018-02-09T02:44:21.607Z,979.35
2018-02-09T02:45:21.520Z,979.30
2018-02-09T02:46:21.435Z,979.36
2018-02-09T02:47:21.344Z,979.36
2018-02-09T02:48:21.270Z,979.33
2018-02-09T02:49:21.173Z,979.33
2018-02-09T02:50:21.084Z,979.37
2018-02-09T02:51:20.996Z,979.34
2018-02-09T02:52:20.914Z,979.35
2018-02-09T02:53:20.827Z,979.34
2018-02-09T02:54:20.740Z,979.28
2018-02-09T02:55:20.650Z,979.32
2018-02-09T02:56:20.564Z,979.24
2018-02-09T02:57:20.478Z,979.27
2018-02-09T02:58:20.392Z,979.27
2018-02-09T02:59:20.303Z,979.24
2018-02-09T03:00:20.216Z,979.23
2018-02-09T03:01:20.129Z,979.22
2018-02-09T03:02:20.045Z,979.19
2018-02-09T03:03:19.963Z,979.18
2018-02-09T03:04:19.867Z,979.20
2018-02-09T03:05:19.783Z,979.24
2018-02-09T03:06:19.695Z,979.23
2018-02-09T03:07:19.608Z,979.21
2018-02-09T03:08:19.519Z,979.21
2018-02-09T03:09:19.435Z,979.21
2018-02-09T03:10:19.346Z,979.20
2018-02-09T03:11:19.258Z,979.22
2018-02-09T03:12:19.172Z,979.20
2018-02-09T03:13:19.108Z,979.24
2018-02-09T03:14:18.998Z,979.19
2018-02-09T03:15:18.910Z,979.20
2018-02-09T03:16:18.824Z,979.16
2018-02-09T03:17:18.738Z,979.16
2018-02-09T03:18:18.651Z,979.17
2018-02-09T03:19:18.562Z,979.16
2018-02-09T03:20:18.475Z,979.17
2018-02-09T03:21:18.389Z,979.18
2018-02-09T03:22:18.301Z,979.21
2018-02-09T03:23:18.214Z,979.22
2018-02-09T03:24:18.125Z,979.21
2018-02-09T03:25:18.040Z,979.20
2018-02-09T03:26:17.966Z,979.21
2018-02-09T03:27:17.866Z,979.23
2018-02-09T03:28:17.779Z,979.22
2018-02-09T03:29:17.697Z,979.22
2018-02-09T03:30:17.604Z,979.24
2018-02-09T03:31:17.519Z,979.23
2018-02-09T03:32:17.428Z,979.21
2018-02-09T03:33:17.343Z,979.22
2018-02-09T03:34:17.256Z,979.28
2018-02-09T03:35:17.169Z,979.26
2018-02-09T03:36:17.081Z,979.24
2018-02-09T03:37:16.992Z,979.24
2018-02-09T03:38:16.907Z,979.25
2018-02-09T03:39:16.820Z,979.27
2018-02-09T03:40:16.733Z,979.24
2018-02-09T03:41:16.646Z,979.22
2018-02-09T03:42:16.559Z,979.20
2018-02-09T03:43:16.469Z,979.21
2018-02-09T03:44:16.383Z,979.18
2018-02-09T03:45:16.295Z,979.18
2018-02-09T03:46:16.208Z,979.17
2018-02-09T03:47:16.121Z,979.16
2018-02-09T03:48:16.036Z,979.18
2018-02-09T03:49:15.948Z,979.15
2018-02-09T03:50:15.867Z,979.15
2018-02-09T03:51:15.774Z,979.12
2018-02-09T03:52:15.685Z,979.16
2018-02-09T03:53:15.599Z,979.11
2018-02-09T03:54:15.510Z,979.12
2018-02-09T03:55:15.423Z,979.08
2018-02-09T03:56:15.337Z,979.09
2018-02-09T03:57:15.249Z,979.07
2018-02-09T03:58:15.161Z,979.10
2018-02-09T03:59:15.074Z,979.04
2018-02-09T04:00:14.989Z,979.05
2018-02-09T04:01:14.898Z,979.06
2018-02-09T04:02:14.815Z,979.04
2018-02-09T04:03:14.727Z,979.06
2018-02-09T04:04:14.638Z,979.08
2018-02-09T04:05:14.550Z,979.06
2018-02-09T04:06:14.461Z,979.07
2018-02-09T04:07:14.375Z,979.07
2018-02-09T04:08:14.286Z,979.06
2018-02-09T04:09:14.198Z,979.09
2018-02-09T04:10:14.113Z,979.09
2018-02-09T04:11:14.025Z,979.07
2018-02-09T04:12:13.940Z,979.08
2018-02-09T04:13:13.848Z,979.06
2018-02-09T04:14:13.763Z,979.05
2018-02-09T04:15:13.673Z,979.08
2018-02-09T04:16:13.586Z,979.04
2018-02-09T04:17:13.500Z,979.09
2018-02-09T04:18:13.413Z,979.13
2018-02-09T04:19:13.324Z,979.09
2018-02-09T04:20:13.240Z,979.08
2018-02-09T04:21:13.149Z,979.10
2018-02-09T04:22:13.065Z,979.09
2018-02-09T04:23:12.974Z,979.06
2018-02-09T04:24:12.889Z,979.08
2018-02-09T04:25:12.801Z,979.06
2018-02-09T04:26:12.713Z,979.04
2018-02-09T04:27:12.635Z,979.05
2018-02-09T04:28:12.541Z,979.03
2018-02-09T04:29:12.454Z,979.01
2018-02-09T04:30:12.370Z,979.01
2018-02-09T04:31:12.278Z,979.05
2018-02-09T04:32:12.195Z,979.02
2018-02-09T04:33:12.104Z,979.05
2018-02-09T04:34:12.016Z,979.04
2018-02-09T04:35:11.929Z,979.03
2018-02-09T04:36:11.839Z,979.05
2018-02-09T04:37:11.751Z,979.03
2018-02-09T04:38:11.668Z,979.04
2018-02-09T04:39:11.596Z,979.05
2018-02-09T04:40:11.491Z,979.01
2018-02-09T04:41:11.406Z,979.00
2018-02-09T04:42:11.317Z,979.01
2018-02-09T04:43:11.230Z,979.02
2018-02-09T04:44:11.140Z,979.02
2018-02-09T04:45:11.053Z,979.02
2018-02-09T04:46:10.966Z,979.02
2018-02-09T04:47:10.877Z,979.04
2018-02-09T04:48:10.818Z,979.01
2018-02-09T04:49:10.705Z,979.02
2018-02-09T04:50:10.615Z,978.99
2018-02-09T04:51:10.528Z,979.02
2018-02-09T04:52:10.442Z,978.99
2018-02-09T04:53:10.356Z,979.01
2018-02-09T04:54:10.267Z,978.97
2018-02-09T04:55:10.178Z,979.03
2018-02-09T04:56:10.092Z,979.01
2018-02-09T04:57:10.004Z,978.99
2018-02-09T04:58:09.918Z,979.00
2018-02-09T04:59:09.827Z,978.98
2018-02-09T05:00:09.743Z,979.01
2018-02-09T05:01:09.653Z,979.00
2018-02-09T05:02:09.573Z,978.97
2018-02-09T05:03:09.481Z,978.97
2018-02-09T05:04:09.391Z,979.01
2018-02-09T05:05:09.309Z,978.97
2018-02-09T05:06:09.244Z,978.97
2018-02-09T05:07:09.129Z,979.03
2018-02-09T05:08:09.042Z,979.02
2018-02-09T05:09:08.965Z,979.01
2018-02-09T05:10:08.872Z,978.97
2018-02-09T05:11:08.780Z,978.98
2018-02-09T05:12:08.693Z,978.95
2018-02-09T05:13:08.612Z,978.98
2018-02-09T05:14:08.524Z,978.99
2018-02-09T05:15:08.432Z,979.01
2018-02-09T05:16:08.342Z,978.98
2018-02-09T05:17:08.256Z,979.01
2018-02-09T05:18:08.169Z,978.95
2018-02-09T05:19:08.082Z,978.96
2018-02-09T05:20:07.996Z,978.96
2018-02-09T05:21:07.907Z,978.96
2018-02-09T05:22:07.818Z,978.93
2018-02-09T05:23:07.731Z,978.95
2018-02-09T05:24:07.645Z,978.97
2018-02-09T05:25:07.557Z,978.94
2018-02-09T05:26:07.469Z,978.95
2018-02-09T05:27:07.383Z,978.95
2018-02-09T05:28:07.294Z,978.95
2018-02-09T05:29:07.209Z,978.99
2018-02-09T05:30:07.121Z,978.98
2018-02-09T05:31:07.031Z,978.95
2018-02-09T05:32:06.945Z,978.95
2018-02-09T05:33:06.858Z,978.95
2018-02-09T05:34:06.815Z,978.95
2018-02-09T05:35:06.683Z,978.98
2018-02-09T05:36:06.595Z,978.95
2018-02-09T05:37:06.509Z,978.96
2018-02-09T05:38:06.422Z,978.97
2018-02-09T05:39:06.335Z,978.97
2018-02-09T05:40:06.247Z,979.00
2018-02-09T05:41:06.161Z,979.01
2018-02-09T05:42:06.104Z,979.02
2018-02-09T05:43:05.984Z,979.00
2018-02-09T05:44:05.897Z,979.02
2018-02-09T05:45:05.810Z,979.00
2018-02-09T05:46:05.734Z,978.99
2018-02-09T05:47:05.635Z,979.00
2018-02-09T05:48:05.549Z,979.01
2018-02-09T05:49:05.462Z,978.99
2018-02-09T05:50:05.374Z,979.03
2018-02-09T05:51:05.289Z,979.03
2018-02-09T05:52:05.198Z,979.04
2018-02-09T05:53:05.114Z,979.02
2018-02-09T05:54:05.023Z,979.04
2018-02-09T05:55:04.939Z,979.03
2018-02-09T05:56:04.849Z,979.02
2018-02-09T05:57:04.761Z,979.00
2018-02-09T05:58:04.698Z,979.02
2018-02-09T05:59:04.587Z,978.98
2018-02-09T06:00:04.500Z,979.01
2018-02-09T06:01:04.412Z,979.01
2018-02-09T06:02:04.332Z,979.01
2018-02-09T06:03:04.237Z,979.02
2018-02-09T06:04:04.152Z,979.02
2018-02-09T06:05:04.064Z,978.99
2018-02-09T06:06:03.974Z,979.00
2018-02-09T06:07:03.889Z,979.00
2018-02-09T06:08:03.799Z,979.01
2018-02-09T06:09:03.716Z,978.99
2018-02-09T06:10:03.627Z,978.98
2018-02-09T06:11:03.536Z,978.96
2018-02-09T06:12:03.450Z,979.03
2018-02-09T06:13:03.361Z,978.99
2018-02-09T06:14:03.276Z,979.01
2018-02-09T06:15:03.188Z,979.01
2018-02-09T06:16:03.102Z,979.03
2018-02-09T06:17:03.012Z,979.02
2018-02-09T06:18:02.928Z,979.02
2018-02-09T06:19:02.838Z,978.99
2018-02-09T06:20:02.755Z,978.97
2018-02-09T06:21:02.692Z,979.00
2018-02-09T06:22:02.594Z,978.99
2018-02-09T06:23:02.488Z,978.98
2018-02-09T06:24:02.401Z,979.03
2018-02-09T06:25:02.313Z,978.99
2018-02-09T06:26:02.231Z,979.02
2018-02-09T06:27:02.143Z,979.01
2018-02-09T06:28:02.064Z,979.02
2018-02-09T06:29:01.967Z,979.03
2018-02-09T06:30:01.881Z,979.04
2018-02-09T06:31:01.790Z,979.06
2018-02-09T06:32:01.701Z,979.06
2018-02-09T06:33:01.614Z,979.05
2018-02-09T06:34:01.526Z,979.02
2018-02-09T06:35:01.441Z,979.04
2018-02-09T06:36:01.352Z,979.09
2018-02-09T06:37:01.266Z,979.07
2018-02-09T06:38:01.177Z,979.08
2018-02-09T06:39:01.092Z,979.10
2018-02-09T06:40:01.012Z,979.05
2018-02-09T06:41:00.919Z,979.05
2018-02-09T06:42:00.828Z,979.04
2018-02-09T06:43:00.740Z,979.08
2018-02-09T06:44:00.654Z,979.07
2018-02-09T06:45:00.569Z,979.11
2018-02-09T06:46:00.481Z,979.09
2018-02-09T06:47:00.390Z,979.10
2018-02-09T06:48:00.305Z,979.10
2018-02-09T06:49:00.217Z,979.11
2018-02-09T06:50:00.128Z,979.08
2018-02-09T06:51:00.040Z,979.12
2018-02-09T06:51:59.957Z,979.10
2018-02-09T06:52:59.868Z,979.12
2018-02-09T06:53:59.779Z,979.14
2018-02-09T06:54:59.693Z,979.12
2018-02-09T06:55:59.611Z,979.14
2018-02-09T06:56:59.519Z,979.11
2018-02-09T06:57:59.434Z,979.13
2018-02-09T06:58:59.345Z,979.08
2018-02-09T06:59:59.269Z,979.11
2018-02-09T07:00:59.172Z,979.13
2018-02-09T07:01:59.082Z,979.14
2018-02-09T07:02:58.997Z,979.15
2018-02-09T07:03:58.909Z,979.16
2018-02-09T07:04:58.824Z,979.13
2018-02-09T07:05:58.734Z,979.15
2018-02-09T07:06:58.650Z,979.15
2018-02-09T07:07:58.560Z,979.15
2018-02-09T07:08:58.471Z,979.13
2018-02-09T07:09:58.386Z,979.09
2018-02-09T07:10:58.297Z,979.10
2018-02-09T07:11:58.211Z,979.12
2018-02-09T07:12:58.123Z,979.09
2018-02-09T07:13:58.036Z,979.10
2018-02-09T07:14:57.957Z,979.10
2018-02-09T07:15:57.865Z,979.09
2018-02-09T07:16:57.774Z,979.09
2018-02-09T07:17:57.691Z,979.09
2018-02-09T07:18:57.605Z,979.07
2018-02-09T07:19:57.513Z,979.09
2018-02-09T07:20:57.428Z,979.05
2018-02-09T07:21:57.343Z,979.09
2018-02-09T07:22:57.252Z,979.08
2018-02-09T07:23:57.166Z,979.10
2018-02-09T07:24:57.080Z,979.10
2018-02-09T07:25:56.994Z,979.05
2018-02-09T07:26:56.907Z,979.05
2018-02-09T07:27:56.820Z,979.07
2018-02-09T07:28:56.731Z,979.05
2018-02-09T07:29:56.645Z,979.11
2018-02-09T07:30:56.557Z,979.03
2018-02-09T07:31:56.468Z,979.04
2018-02-09T07:32:56.385Z,979.05
2018-02-09T07:33:56.296Z,979.05
2018-02-09T07:34:56.206Z,979.05
2018-02-09T07:35:56.120Z,979.04
2018-02-09T07:36:56.035Z,979.05
2018-02-09T07:37:55.947Z,979.02
2018-02-09T07:38:55.859Z,978.98
2018-02-09T07:39:55.772Z,979.02
2018-02-09T07:40:55.685Z,978.97
2018-02-09T07:41:55.599Z,978.97
2018-02-09T07:42:55.511Z,978.99
2018-02-09T07:43:55.427Z,978.94
2018-02-09T07:44:55.336Z,978.99
2018-02-09T07:45:55.250Z,978.96
2018-02-09T07:46:55.165Z,978.94
2018-02-09T07:47:55.085Z,978.95
2018-02-09T07:48:54.990Z,978.92
2018-02-09T07:49:54.901Z,978.94
2018-02-09T07:50:54.816Z,978.93
2018-02-09T07:51:54.728Z,978.91
2018-02-09T07:52:54.646Z,978.92
2018-02-09T07:53:54.554Z,978.90
2018-02-09T07:54:54.469Z,978.92
2018-02-09T07:55:54.389Z,978.86
2018-02-09T07:56:54.294Z,978.87
2018-02-09T07:57:54.213Z,978.88
2018-02-09T07:58:54.164Z,978.88
2018-02-09T07:59:54.036Z,978.89
2018-02-09T08:00:53.947Z,978.90
2018-02-09T08:01:53.865Z,978.89
2018-02-09T08:02:53.774Z,978.92
2018-02-09T08:03:53.694Z,978.92
2018-02-09T08:04:53.599Z,978.90
2018-02-09T08:05:53.513Z,978.90
2018-02-09T08:06:53.426Z,978.91
2018-02-09T08:07:53.338Z,978.88
2018-02-09T08:08:53.251Z,978.94
2018-02-09T08:09:53.167Z,978.87
2018-02-09T08:10:53.080Z,978.90
2018-02-09T08:11:52.993Z,978.90
2018-02-09T08:12:52.904Z,978.86
2018-02-09T08:13:52.819Z,978.89
2018-02-09T08:14:52.737Z,978.84
2018-02-09T08:15:52.645Z,978.84
2018-02-09T08:16:52.558Z,978.82
2018-02-09T08:17:52.473Z,978.78
2018-02-09T08:18:52.399Z,978.78
2018-02-09T08:19:52.300Z,978.75
2018-02-09T08:20:52.212Z,978.75
2018-02-09T08:21:52.153Z,978.80
2018-02-09T08:22:52.038Z,978.74
2018-02-09T08:23:51.955Z,978.78
2018-02-09T08:24:51.870Z,978.80
2018-02-09T08:25:51.792Z,978.75
2018-02-09T08:26:51.695Z,978.78
2018-02-09T08:27:51.607Z,978.79
2018-02-09T08:28:51.522Z,978.73
2018-02-09T08:29:51.438Z,978.75
2018-02-09T08:30:51.347Z,978.80
2018-02-09T08:31:51.260Z,978.76
2018-02-09T08:32:51.179Z,978.75
2018-02-09T08:33:51.089Z,978.76
2018-02-09T08:34:51.002Z,978.73
2018-02-09T08:35:50.918Z,978.73
2018-02-09T08:36:50.830Z,978.72
2018-02-09T08:37:50.744Z,978.69
2018-02-09T08:38:50.661Z,978.71
2018-02-09T08:39:50.571Z,978.73
2018-02-09T08:40:50.489Z,978.71
2018-02-09T08:41:50.399Z,978.72
2018-02-09T08:42:50.312Z,978.75
2018-02-09T08:43:50.227Z,978.73
2018-02-09T08:44:50.144Z,978.78
2018-02-09T08:45:50.057Z,978.76
2018-02-09T08:46:49.966Z,978.72
2018-02-09T08:47:49.887Z,978.71
2018-02-09T08:48:49.798Z,978.73
2018-02-09T08:49:49.713Z,978.70
2018-02-09T08:50:49.624Z,978.72
2018-02-09T08:51:49.538Z,978.72
2018-02-09T08:52:49.471Z,978.74
2018-02-09T08:53:49.368Z,978.73
2018-02-09T08:54:49.281Z,978.68
2018-02-09T08:55:49.196Z,978.68
2018-02-09T08:56:49.112Z,978.68
2018-02-09T08:57:49.022Z,978.67
2018-02-09T08:58:48.949Z,978.65
2018-02-09T08:59:48.852Z,978.65
2018-02-09T09:00:48.766Z,978.66
2018-02-09T09:01:48.680Z,978.63
2018-02-09T09:02:48.595Z,978.64
2018-02-09T09:03:48.510Z,978.63
2018-02-09T09:04:48.421Z,978.60
2018-02-09T09:05:48.358Z,978.60
2018-02-09T09:06:48.253Z,978.65
2018-02-09T09:07:48.167Z,978.60
2018-02-09T09:08:48.083Z,978.65
2018-02-09T09:09:47.995Z,978.62
2018-02-09T09:10:47.907Z,978.65
2018-02-09T09:11:47.826Z,978.62
2018-02-09T09:12:47.738Z,978.62
2018-02-09T09:13:47.652Z,978.60
2018-02-09T09:14:47.569Z,978.62
2018-02-09T09:15:47.480Z,978.64
2018-02-09T09:16:47.395Z,978.61
2018-02-09T09:17:47.312Z,978.60
2018-02-09T09:18:47.227Z,978.61
2018-02-09T09:19:47.139Z,978.60
2018-02-09T09:20:47.055Z,978.63
2018-02-09T09:21:46.969Z,978.56
2018-02-09T09:22:46.883Z,978.55
2018-02-09T09:23:46.800Z,978.56
2018-02-09T09:24:46.712Z,978.52
2018-02-09T09:25:46.631Z,978.51
2018-02-09T09:26:46.541Z,978.52
2018-02-09T09:27:46.461Z,978.55
2018-02-09T09:28:46.372Z,978.54
2018-02-09T09:29:46.286Z,978.50
2018-02-09T09:30:46.198Z,978.51
2018-02-09T09:31:46.124Z,978.49
2018-02-09T09:32:46.029Z,978.44
2018-02-09T09:33:45.943Z,978.46
2018-02-09T09:34:45.858Z,978.44
2018-02-09T09:35:45.774Z,978.43
2018-02-09T09:36:45.687Z,978.46
2018-02-09T09:37:45.601Z,978.47
2018-02-09T09:38:45.517Z,978.45
2018-02-09T09:39:45.432Z,978.48
2018-02-09T09:40:45.356Z,978.48
2018-02-09T09:41:45.291Z,978.48
2018-02-09T09:42:45.173Z,978.47
2018-02-09T09:43:45.093Z,978.47
2018-02-09T09:44:45.058Z,978.44
2018-02-09T09:45:44.920Z,978.45
2018-02-09T09:46:44.833Z,978.39
2018-02-09T09:47:44.773Z,978.40
2018-02-09T09:48:44.663Z,978.41
2018-02-09T09:49:44.578Z,978.35
2018-02-09T09:50:44.495Z,978.35
2018-02-09T09:51:44.408Z,978.33
2018-02-09T09:52:44.323Z,978.36
2018-02-09T09:53:44.237Z,978.33
2018-02-09T09:54:44.154Z,978.35
2018-02-09T09:55:44.069Z,978.33
2018-02-09T09:56:43.984Z,978.36
2018-02-09T09:57:43.904Z,978.32
2018-02-09T09:58:43.813Z,978.33
2018-02-09T09:59:43.730Z,978.32
2018-02-09T10:00:43.643Z,978.28
2018-02-09T10:01:43.559Z,978.28
2018-02-09T10:02:43.473Z,978.28
2018-02-09T10:03:43.389Z,978.27
2018-02-09T10:04:43.305Z,978.26
2018-02-09T10:05:43.220Z,978.23
2018-02-09T10:06:43.138Z,978.21
2018-02-09T10:07:43.053Z,978.20
2018-02-09T10:08:42.966Z,978.20
2018-02-09T10:09:42.882Z,978.16
2018-02-09T10:10:42.795Z,978.18
2018-02-09T10:11:42.712Z,978.17
2018-02-09T10:12:42.626Z,978.16
2018-02-09T10:13:42.547Z,978.17
2018-02-09T10:14:42.457Z,978.19
2018-02-09T10:15:42.377Z,978.17
2018-02-09T10:16:42.289Z,978.17
2018-02-09T10:17:42.202Z,978.15
2018-02-09T10:18:42.119Z,978.12
2018-02-09T10:19:42.034Z,978.13
2018-02-09T10:20:41.953Z,978.11
2018-02-09T10:21:41.868Z,978.12
2018-02-09T10:22:41.784Z,978.07
2018-02-09T10:23:41.696Z,978.10
2018-02-09T10:24:41.610Z,978.07
2018-02-09T10:25:41.527Z,978.03
2018-02-09T10:26:41.444Z,977.99
2018-02-09T10:27:41.360Z,978.04
2018-02-09T10:28:41.274Z,978.01
2018-02-09T10:29:41.190Z,978.03
2018-02-09T10:30:41.104Z,978.00
2018-02-09T10:31:41.019Z,977.99
2018-02-09T10:32:40.936Z,978.02
2018-02-09T10:33:40.850Z,978.02
2018-02-09T10:34:40.768Z,977.96
2018-02-09T10:35:40.682Z,977.99
2018-02-09T10:36:40.596Z,977.98
2018-02-09T10:37:40.511Z,977.95
2018-02-09T10:38:40.424Z,977.93
2018-02-09T10:39:40.342Z,977.93
2018-02-09T10:40:40.256Z,977.94
2018-02-09T10:41:40.175Z,977.92
2018-02-09T10:42:40.087Z,977.87
2018-02-09T10:43:40.003Z,977.86
2018-02-09T10:44:39.917Z,977.85
2018-02-09T10:45:39.873Z,977.86
2018-02-09T10:46:39.748Z,977.87
2018-02-09T10:47:39.665Z,977.84
2018-02-09T10:48:39.581Z,977.84
2018-02-09T10:49:39.493Z,977.82
2018-02-09T10:50:39.411Z,977.80
2018-02-09T10:51:39.326Z,977.81
2018-02-09T10:52:39.246Z,977.81
2018-02-09T10:53:39.156Z,977.80
2018-02-09T10:54:39.076Z,977.76
2018-02-09T10:55:38.985Z,977.77
2018-02-09T10:56:38.928Z,977.75
2018-02-09T10:57:38.818Z,977.75
2018-02-09T10:58:38.732Z,977.74
2018-02-09T10:59:38.645Z,977.73
2018-02-09T11:00:38.563Z,977.72
2018-02-09T11:01:38.480Z,977.73
2018-02-09T11:02:38.393Z,977.73
2018-02-09T11:03:38.328Z,977.67
2018-02-09T11:04:38.226Z,977.69
2018-02-09T11:05:38.138Z,977.69
2018-02-09T11:06:38.054Z,977.63
2018-02-09T11:07:37.974Z,977.63
2018-02-09T11:08:37.884Z,977.62
2018-02-09T11:09:37.800Z,977.59
2018-02-09T11:10:37.716Z,977.62
2018-02-09T11:11:37.628Z,977.59
2018-02-09T11:12:37.545Z,977.59
2018-02-09T11:13:37.460Z,977.57
2018-02-09T11:14:37.376Z,977.59
2018-02-09T11:15:37.292Z,977.59
2018-02-09T11:16:37.204Z,977.57
2018-02-09T11:17:37.120Z,977.53
2018-02-09T11:18:37.038Z,977.50
2018-02-09T11:19:36.952Z,977.51
2018-02-09T11:20:36.870Z,977.53
2018-02-09T11:21:36.780Z,977.49
2018-02-09T11:22:36.696Z,977.51
2018-02-09T11:23:36.612Z,977.46
2018-02-09T11:24:36.525Z,977.47
2018-02-09T11:25:36.444Z,977.44
2018-02-09T11:26:36.355Z,977.49
2018-02-09T11:27:36.273Z,977.45
2018-02-09T11:28:36.188Z,977.48
2018-02-09T11:29:36.103Z,977.46
2018-02-09T11:30:36.020Z,977.44
2018-02-09T11:31:35.932Z,977.39
2018-02-09T11:32:35.846Z,977.41
2018-02-09T11:33:35.767Z,977.36
2018-02-09T11:34:35.727Z,977.40
2018-02-09T11:35:35.592Z,977.35
2018-02-09T11:36:35.507Z,977.32
2018-02-09T11:37:35.424Z,977.29
2018-02-09T11:38:35.339Z,977.29
2018-02-09T11:39:35.259Z,977.30
2018-02-09T11:40:35.170Z,977.26
2018-02-09T11:41:35.083Z,977.23
2018-02-09T11:42:35.002Z,977.23
2018-02-09T11:43:34.914Z,977.22
2018-02-09T11:44:34.838Z,977.22
2018-02-09T11:45:34.759Z,977.25
2018-02-09T11:46:34.659Z,977.23
2018-02-09T11:47:34.575Z,977.22
2018-02-09T11:48:34.491Z,977.21
2018-02-09T11:49:34.416Z,977.18
2018-02-09T11:50:34.321Z,977.20
2018-02-09T11:51:34.236Z,977.20
2018-02-09T11:52:34.154Z,977.16
2018-02-09T11:53:34.075Z,977.16
2018-02-09T11:54:33.982Z,977.18
2018-02-09T11:55:33.898Z,977.15
2018-02-09T11:56:33.815Z,977.18
2018-02-09T11:57:33.730Z,977.12
2018-02-09T11:58:33.644Z,977.15
2018-02-09T11:59:33.564Z,977.19
2018-02-09T12:00:33.507Z,977.14
2018-02-09T12:01:33.391Z,977.14
2018-02-09T12:02:33.303Z,977.12
2018-02-09T12:03:33.222Z,977.11
2018-02-09T12:04:33.157Z,977.10
2018-02-09T12:05:33.051Z,977.13
2018-02-09T12:06:33.010Z,977.09
2018-02-09T12:07:32.885Z,977.10
2018-02-09T12:08:32.801Z,977.08
2018-02-09T12:09:32.713Z,977.06
2018-02-09T12:10:32.629Z,977.03
2018-02-09T12:11:32.545Z,977.03
2018-02-09T12:12:32.460Z,977.04
2018-02-09T12:13:32.374Z,977.02
2018-02-09T12:14:32.290Z,976.99
2018-02-09T12:15:32.215Z,976.98
2018-02-09T12:16:32.120Z,976.99
2018-02-09T12:17:32.047Z,976.95
2018-02-09T12:18:31.951Z,976.92
2018-02-09T12:19:31.868Z,976.89
2018-02-09T12:20:31.780Z,976.89
2018-02-09T12:21:31.699Z,976.86
2018-02-09T12:22:31.611Z,976.88
2018-02-09T12:23:31.529Z,976.87
2018-02-09T12:24:31.444Z,976.85
2018-02-09T12:25:31.363Z,976.86
2018-02-09T12:26:31.274Z,976.85
2018-02-09T12:27:31.194Z,976.85
2018-02-09T12:28:31.111Z,976.82
2018-02-09T12:29:31.021Z,976.81
2018-02-09T12:30:30.939Z,976.81
2018-02-09T12:31:30.850Z,976.78
2018-02-09T12:32:30.767Z,976.80
2018-02-09T12:33:30.694Z,976.81
2018-02-09T12:34:30.600Z,976.76
2018-02-09T12:35:30.513Z,976.80
2018-02-09T12:36:30.430Z,976.80
2018-02-09T12:37:30.344Z,976.80
2018-02-09T12:38:30.257Z,976.83
2018-02-09T12:39:30.174Z,976.77
2018-02-09T12:40:30.117Z,976.79
2018-02-09T12:41:30.009Z,976.78
2018-02-09T12:42:29.927Z,976.76
2018-02-09T12:43:29.837Z,976.77
2018-02-09T12:44:29.751Z,976.76
2018-02-09T12:45:29.667Z,976.72
2018-02-09T12:46:29.582Z,976.71
2018-02-09T12:47:29.497Z,976.69
2018-02-09T12:48:29.416Z,976.72
2018-02-09T12:49:29.329Z,976.67
2018-02-09T12:50:29.245Z,976.71
2018-02-09T12:51:29.157Z,976.69
2018-02-09T12:52:29.074Z,976.67
2018-02-09T12:53:28.991Z,976.69
2018-02-09T12:54:28.902Z,976.66
2018-02-09T12:55:28.821Z,976.65
2018-02-09T12:56:28.736Z,976.65